sensor_id;sensor_type;location;lat;lon;timestamp;P1;durP1;ratioP1;P2;durP2;ratioP2
46078;SDS011;31820;51.880;-0.518;2022-09-17T00:00:31;1.95;;;0.70;;
46078;SDS011;31820;51.880;-0.518;2022-09-17T00:02:57;1.30;;;0.73;;
46078;SDS011;31820;51.880;-0.518;2022-09-17T00:05:22;2.17;;;0.70;;
46078;SDS011;31820;51.880;-0.518;2022-09-17T00:07:51;3.33;;;0.80;;
46078;SDS011;31820;51.880;-0.518;2022-09-17T00:10:18;1.63;;;0.88;;
46078;SDS011;31820;51.880;-0.518;2022-09-17T00:15:10;1.63;;;0.50;;
46078;SDS011;31820;51.880;-0.518;2022-09-17T00:17:36;1.73;;;0.68;;
46078;SDS011;31820;51.880;-0.518;2022-09-17T00:20:02;1.40;;;0.60;;
46078;SDS011;31820;51.880;-0.518;2022-09-17T00:22:29;2.45;;;0.70;;
46078;SDS011;31820;51.880;-0.518;2022-09-17T00:24:54;1.70;;;0.70;;
46078;SDS011;31820;51.880;-0.518;2022-09-17T00:27:20;1.40;;;0.70;;
46078;SDS011;31820;51.880;-0.518;2022-09-17T00:29:46;1.58;;;0.60;;
46078;SDS011;31820;51.880;-0.518;2022-09-17T00:32:13;1.40;;;0.47;;
46078;SDS011;31820;51.880;-0.518;2022-09-17T00:34:38;1.17;;;0.52;;
46078;SDS011;31820;51.880;-0.518;2022-09-17T00:37:04;1.17;;;0.57;;
46078;SDS011;31820;51.880;-0.518;2022-09-17T00:39:29;1.88;;;0.55;;
46078;SDS011;31820;51.880;-0.518;2022-09-17T00:41:54;1.70;;;0.52;;
46078;SDS011;31820;51.880;-0.518;2022-09-17T00:44:41;1.30;;;0.55;;
46078;SDS011;31820;51.880;-0.518;2022-09-17T00:50:14;2.00;;;0.70;;
46078;SDS011;31820;51.880;-0.518;2022-09-17T00:52:52;1.95;;;0.75;;
46078;SDS011;31820;51.880;-0.518;2022-09-17T00:55:27;1.63;;;0.77;;
46078;SDS011;31820;51.880;-0.518;2022-09-17T00:58:05;1.13;;;0.55;;
46078;SDS011;31820;51.880;-0.518;2022-09-17T01:00:34;1.40;;;0.50;;
46078;SDS011;31820;51.880;-0.518;2022-09-17T01:03:01;2.60;;;0.52;;
46078;SDS011;31820;51.880;-0.518;2022-09-17T01:05:30;1.27;;;0.63;;
46078;SDS011;31820;51.880;-0.518;2022-09-17T01:26:26;1.55;;;0.60;;
46078;SDS011;31820;51.880;-0.518;2022-09-17T01:37:53;1.23;;;0.40;;
46078;SDS011;31820;51.880;-0.518;2022-09-17T01:40:26;1.80;;;0.63;;
46078;SDS011;31820;51.880;-0.518;2022-09-17T01:48:20;1.35;;;0.55;;
46078;SDS011;31820;51.880;-0.518;2022-09-17T01:51:08;1.05;;;0.50;;
46078;SDS011;31820;51.880;-0.518;2022-09-17T01:53:47;1.50;;;0.40;;
46078;SDS011;31820;51.880;-0.518;2022-09-17T01:56:21;1.25;;;0.68;;
46078;SDS011;31820;51.880;-0.518;2022-09-17T01:58:51;2.15;;;0.70;;
46078;SDS011;31820;51.880;-0.518;2022-09-17T02:01:22;1.52;;;0.50;;
46078;SDS011;31820;51.880;-0.518;2022-09-17T02:03:58;1.05;;;0.50;;
46078;SDS011;31820;51.880;-0.518;2022-09-17T02:06:29;1.25;;;0.47;;
46078;SDS011;31820;51.880;-0.518;2022-09-17T02:09:01;1.15;;;0.32;;
46078;SDS011;31820;51.880;-0.518;2022-09-17T02:11:29;2.78;;;0.55;;
46078;SDS011;31820;51.880;-0.518;2022-09-17T02:14:02;1.13;;;0.40;;
46078;SDS011;31820;51.880;-0.518;2022-09-17T02:16:33;1.55;;;0.40;;
46078;SDS011;31820;51.880;-0.518;2022-09-17T02:19:04;1.27;;;0.70;;
46078;SDS011;31820;51.880;-0.518;2022-09-17T02:21:40;3.50;;;0.60;;
46078;SDS011;31820;51.880;-0.518;2022-09-17T02:24:15;0.90;;;0.50;;
46078;SDS011;31820;51.880;-0.518;2022-09-17T02:26:47;1.67;;;0.70;;
46078;SDS011;31820;51.880;-0.518;2022-09-17T02:29:20;1.80;;;0.50;;
46078;SDS011;31820;51.880;-0.518;2022-09-17T02:31:55;0.75;;;0.30;;
46078;SDS011;31820;51.880;-0.518;2022-09-17T02:34:21;1.33;;;0.50;;
46078;SDS011;31820;51.880;-0.518;2022-09-17T02:36:49;1.70;;;0.55;;
46078;SDS011;31820;51.880;-0.518;2022-09-17T02:39:15;1.35;;;0.50;;
46078;SDS011;31820;51.880;-0.518;2022-09-17T02:41:53;1.25;;;0.43;;
46078;SDS011;31820;51.880;-0.518;2022-09-17T02:49:57;1.02;;;0.40;;
46078;SDS011;31820;51.880;-0.518;2022-09-17T02:55:25;1.40;;;0.38;;
46078;SDS011;31820;51.880;-0.518;2022-09-17T02:58:02;1.80;;;0.65;;
46078;SDS011;31820;51.880;-0.518;2022-09-17T03:00:38;1.08;;;0.45;;
46078;SDS011;31820;51.880;-0.518;2022-09-17T03:05:33;0.93;;;0.50;;
46078;SDS011;31820;51.880;-0.518;2022-09-17T03:08:02;2.35;;;0.40;;
46078;SDS011;31820;51.880;-0.518;2022-09-17T03:10:27;1.17;;;0.55;;
46078;SDS011;31820;51.880;-0.518;2022-09-17T03:12:54;0.82;;;0.40;;
46078;SDS011;31820;51.880;-0.518;2022-09-17T03:15:20;1.40;;;0.40;;
46078;SDS011;31820;51.880;-0.518;2022-09-17T03:17:45;0.82;;;0.30;;
46078;SDS011;31820;51.880;-0.518;2022-09-17T03:20:11;0.90;;;0.40;;
46078;SDS011;31820;51.880;-0.518;2022-09-17T03:22:36;0.90;;;0.40;;
46078;SDS011;31820;51.880;-0.518;2022-09-17T03:25:02;0.65;;;0.30;;
46078;SDS011;31820;51.880;-0.518;2022-09-17T03:27:28;1.63;;;0.40;;
46078;SDS011;31820;51.880;-0.518;2022-09-17T03:29:53;1.20;;;0.47;;
46078;SDS011;31820;51.880;-0.518;2022-09-17T03:32:19;2.15;;;0.45;;
46078;SDS011;31820;51.880;-0.518;2022-09-17T03:34:44;1.20;;;0.47;;
46078;SDS011;31820;51.880;-0.518;2022-09-17T03:37:11;1.50;;;0.53;;
46078;SDS011;31820;51.880;-0.518;2022-09-17T03:39:37;1.08;;;0.40;;
46078;SDS011;31820;51.880;-0.518;2022-09-17T03:42:02;1.23;;;0.47;;
46078;SDS011;31820;51.880;-0.518;2022-09-17T03:44:28;1.17;;;0.40;;
46078;SDS011;31820;51.880;-0.518;2022-09-17T03:46:53;1.05;;;0.40;;
46078;SDS011;31820;51.880;-0.518;2022-09-17T03:49:19;0.70;;;0.40;;
46078;SDS011;31820;51.880;-0.518;2022-09-17T03:51:44;1.10;;;0.45;;
46078;SDS011;31820;51.880;-0.518;2022-09-17T03:54:10;2.28;;;0.45;;
46078;SDS011;31820;51.880;-0.518;2022-09-17T03:56:36;1.13;;;0.50;;
46078;SDS011;31820;51.880;-0.518;2022-09-17T03:59:01;0.73;;;0.30;;
46078;SDS011;31820;51.880;-0.518;2022-09-17T04:01:27;0.60;;;0.50;;
46078;SDS011;31820;51.880;-0.518;2022-09-17T04:03:52;1.10;;;0.60;;
46078;SDS011;31820;51.880;-0.518;2022-09-17T04:06:18;0.95;;;0.40;;
46078;SDS011;31820;51.880;-0.518;2022-09-17T04:08:44;0.95;;;0.40;;
46078;SDS011;31820;51.880;-0.518;2022-09-17T04:11:10;0.90;;;0.47;;
46078;SDS011;31820;51.880;-0.518;2022-09-17T04:13:35;1.00;;;0.40;;
46078;SDS011;31820;51.880;-0.518;2022-09-17T04:16:01;1.33;;;0.60;;
46078;SDS011;31820;51.880;-0.518;2022-09-17T04:18:27;0.80;;;0.47;;
46078;SDS011;31820;51.880;-0.518;2022-09-17T04:20:53;1.42;;;0.43;;
46078;SDS011;31820;51.880;-0.518;2022-09-17T04:23:19;1.58;;;0.60;;
46078;SDS011;31820;51.880;-0.518;2022-09-17T04:25:45;2.55;;;0.93;;
46078;SDS011;31820;51.880;-0.518;2022-09-17T04:28:10;1.63;;;0.40;;
46078;SDS011;31820;51.880;-0.518;2022-09-17T04:30:36;0.88;;;0.38;;
46078;SDS011;31820;51.880;-0.518;2022-09-17T04:33:02;1.13;;;0.40;;
46078;SDS011;31820;51.880;-0.518;2022-09-17T04:35:27;1.52;;;0.32;;
46078;SDS011;31820;51.880;-0.518;2022-09-17T04:37:54;0.98;;;0.30;;
46078;SDS011;31820;51.880;-0.518;2022-09-17T04:40:20;2.30;;;0.45;;
46078;SDS011;31820;51.880;-0.518;2022-09-17T04:42:47;0.85;;;0.40;;
46078;SDS011;31820;51.880;-0.518;2022-09-17T04:45:13;1.73;;;0.45;;
46078;SDS011;31820;51.880;-0.518;2022-09-17T04:47:39;1.40;;;0.50;;
46078;SDS011;31820;51.880;-0.518;2022-09-17T04:50:05;3.28;;;0.85;;
46078;SDS011;31820;51.880;-0.518;2022-09-17T04:52:31;1.45;;;0.47;;
46078;SDS011;31820;51.880;-0.518;2022-09-17T04:54:56;1.08;;;0.45;;
46078;SDS011;31820;51.880;-0.518;2022-09-17T04:57:21;1.13;;;0.30;;
46078;SDS011;31820;51.880;-0.518;2022-09-17T04:59:49;1.15;;;0.40;;
46078;SDS011;31820;51.880;-0.518;2022-09-17T05:02:15;1.40;;;0.35;;
46078;SDS011;31820;51.880;-0.518;2022-09-17T05:04:41;1.88;;;0.50;;
46078;SDS011;31820;51.880;-0.518;2022-09-17T05:07:06;1.83;;;0.55;;
46078;SDS011;31820;51.880;-0.518;2022-09-17T05:09:32;2.22;;;0.45;;
46078;SDS011;31820;51.880;-0.518;2022-09-17T05:11:57;0.70;;;0.30;;
46078;SDS011;31820;51.880;-0.518;2022-09-17T05:14:23;1.38;;;0.40;;
46078;SDS011;31820;51.880;-0.518;2022-09-17T05:16:48;1.15;;;0.40;;
46078;SDS011;31820;51.880;-0.518;2022-09-17T05:19:14;0.77;;;0.30;;
46078;SDS011;31820;51.880;-0.518;2022-09-17T05:21:40;0.95;;;0.35;;
46078;SDS011;31820;51.880;-0.518;2022-09-17T05:24:05;0.63;;;0.38;;
46078;SDS011;31820;51.880;-0.518;2022-09-17T05:26:31;0.88;;;0.40;;
46078;SDS011;31820;51.880;-0.518;2022-09-17T05:28:57;2.58;;;0.50;;
46078;SDS011;31820;51.880;-0.518;2022-09-17T05:31:23;2.20;;;0.45;;
46078;SDS011;31820;51.880;-0.518;2022-09-17T05:33:48;0.82;;;0.40;;
46078;SDS011;31820;51.880;-0.518;2022-09-17T05:36:14;1.98;;;0.30;;
46078;SDS011;31820;51.880;-0.518;2022-09-17T05:38:39;0.93;;;0.40;;
46078;SDS011;31820;51.880;-0.518;2022-09-17T05:41:05;0.98;;;0.40;;
46078;SDS011;31820;51.880;-0.518;2022-09-17T05:43:31;1.40;;;0.50;;
46078;SDS011;31820;51.880;-0.518;2022-09-17T05:46:04;1.45;;;0.30;;
46078;SDS011;31820;51.880;-0.518;2022-09-17T05:48:30;1.10;;;0.40;;
46078;SDS011;31820;51.880;-0.518;2022-09-17T05:50:56;0.82;;;0.40;;
46078;SDS011;31820;51.880;-0.518;2022-09-17T05:53:21;1.35;;;0.50;;
46078;SDS011;31820;51.880;-0.518;2022-09-17T05:55:47;1.30;;;0.60;;
46078;SDS011;31820;51.880;-0.518;2022-09-17T05:58:13;0.85;;;0.43;;
46078;SDS011;31820;51.880;-0.518;2022-09-17T06:00:41;1.35;;;0.40;;
46078;SDS011;31820;51.880;-0.518;2022-09-17T06:03:10;0.88;;;0.40;;
46078;SDS011;31820;51.880;-0.518;2022-09-17T06:05:37;0.80;;;0.40;;
46078;SDS011;31820;51.880;-0.518;2022-09-17T06:08:03;0.95;;;0.30;;
46078;SDS011;31820;51.880;-0.518;2022-09-17T06:10:29;2.17;;;0.55;;
46078;SDS011;31820;51.880;-0.518;2022-09-17T06:12:55;2.40;;;0.50;;
46078;SDS011;31820;51.880;-0.518;2022-09-17T06:15:22;1.65;;;0.50;;
46078;SDS011;31820;51.880;-0.518;2022-09-17T06:17:47;1.05;;;0.35;;
46078;SDS011;31820;51.880;-0.518;2022-09-17T06:20:13;0.88;;;0.32;;
46078;SDS011;31820;51.880;-0.518;2022-09-17T06:22:39;2.47;;;0.40;;
46078;SDS011;31820;51.880;-0.518;2022-09-17T06:25:05;1.25;;;0.43;;
46078;SDS011;31820;51.880;-0.518;2022-09-17T06:27:32;1.00;;;0.40;;
46078;SDS011;31820;51.880;-0.518;2022-09-17T06:29:58;0.95;;;0.32;;
46078;SDS011;31820;51.880;-0.518;2022-09-17T06:32:24;1.45;;;0.50;;
46078;SDS011;31820;51.880;-0.518;2022-09-17T06:34:50;0.77;;;0.50;;
46078;SDS011;31820;51.880;-0.518;2022-09-17T06:37:16;0.93;;;0.30;;
46078;SDS011;31820;51.880;-0.518;2022-09-17T06:39:42;0.82;;;0.30;;
46078;SDS011;31820;51.880;-0.518;2022-09-17T06:42:08;1.00;;;0.35;;
46078;SDS011;31820;51.880;-0.518;2022-09-17T06:44:33;0.80;;;0.30;;
46078;SDS011;31820;51.880;-0.518;2022-09-17T06:46:59;2.13;;;0.40;;
46078;SDS011;31820;51.880;-0.518;2022-09-17T06:49:24;0.73;;;0.35;;
46078;SDS011;31820;51.880;-0.518;2022-09-17T06:51:49;0.70;;;0.30;;
46078;SDS011;31820;51.880;-0.518;2022-09-17T06:54:15;1.63;;;0.50;;
46078;SDS011;31820;51.880;-0.518;2022-09-17T06:56:40;1.60;;;0.40;;
46078;SDS011;31820;51.880;-0.518;2022-09-17T06:59:06;0.85;;;0.30;;
46078;SDS011;31820;51.880;-0.518;2022-09-17T07:01:32;0.70;;;0.30;;
46078;SDS011;31820;51.880;-0.518;2022-09-17T07:03:57;0.82;;;0.38;;
46078;SDS011;31820;51.880;-0.518;2022-09-17T07:06:23;0.73;;;0.30;;
46078;SDS011;31820;51.880;-0.518;2022-09-17T07:08:48;1.10;;;0.40;;
46078;SDS011;31820;51.880;-0.518;2022-09-17T07:11:13;0.80;;;0.32;;
46078;SDS011;31820;51.880;-0.518;2022-09-17T07:13:40;1.00;;;0.40;;
46078;SDS011;31820;51.880;-0.518;2022-09-17T07:16:06;0.47;;;0.20;;
46078;SDS011;31820;51.880;-0.518;2022-09-17T07:18:32;0.98;;;0.45;;
46078;SDS011;31820;51.880;-0.518;2022-09-17T07:21:02;1.42;;;0.60;;
46078;SDS011;31820;51.880;-0.518;2022-09-17T07:23:30;0.60;;;0.30;;
46078;SDS011;31820;51.880;-0.518;2022-09-17T07:25:58;1.08;;;0.30;;
46078;SDS011;31820;51.880;-0.518;2022-09-17T07:28:25;0.90;;;0.38;;
46078;SDS011;31820;51.880;-0.518;2022-09-17T07:30:51;1.33;;;0.65;;
46078;SDS011;31820;51.880;-0.518;2022-09-17T07:33:18;0.70;;;0.40;;
46078;SDS011;31820;51.880;-0.518;2022-09-17T07:35:57;1.02;;;0.40;;
46078;SDS011;31820;51.880;-0.518;2022-09-17T07:38:23;1.20;;;0.52;;
46078;SDS011;31820;51.880;-0.518;2022-09-17T07:40:56;0.82;;;0.30;;
46078;SDS011;31820;51.880;-0.518;2022-09-17T07:43:25;1.88;;;0.50;;
46078;SDS011;31820;51.880;-0.518;2022-09-17T07:48:18;1.35;;;0.40;;
46078;SDS011;31820;51.880;-0.518;2022-09-17T07:50:45;1.07;;;0.40;;
46078;SDS011;31820;51.880;-0.518;2022-09-17T07:53:10;1.80;;;0.35;;
46078;SDS011;31820;51.880;-0.518;2022-09-17T07:55:36;1.42;;;0.45;;
46078;SDS011;31820;51.880;-0.518;2022-09-17T07:58:01;0.70;;;0.40;;
46078;SDS011;31820;51.880;-0.518;2022-09-17T08:00:27;1.02;;;0.30;;
46078;SDS011;31820;51.880;-0.518;2022-09-17T08:02:53;0.80;;;0.40;;
46078;SDS011;31820;51.880;-0.518;2022-09-17T08:05:19;0.70;;;0.33;;
46078;SDS011;31820;51.880;-0.518;2022-09-17T08:07:49;1.05;;;0.40;;
46078;SDS011;31820;51.880;-0.518;2022-09-17T08:10:16;0.90;;;0.32;;
46078;SDS011;31820;51.880;-0.518;2022-09-17T08:12:46;2.20;;;0.35;;
46078;SDS011;31820;51.880;-0.518;2022-09-17T08:15:13;1.33;;;0.30;;
46078;SDS011;31820;51.880;-0.518;2022-09-17T08:17:43;0.80;;;0.40;;
46078;SDS011;31820;51.880;-0.518;2022-09-17T08:20:09;1.00;;;0.30;;
46078;SDS011;31820;51.880;-0.518;2022-09-17T08:22:34;0.90;;;0.25;;
46078;SDS011;31820;51.880;-0.518;2022-09-17T08:25:00;4.35;;;0.30;;
46078;SDS011;31820;51.880;-0.518;2022-09-17T08:27:28;1.67;;;0.45;;
46078;SDS011;31820;51.880;-0.518;2022-09-17T08:29:55;1.33;;;0.32;;
46078;SDS011;31820;51.880;-0.518;2022-09-17T08:32:20;0.70;;;0.30;;
46078;SDS011;31820;51.880;-0.518;2022-09-17T08:34:46;0.93;;;0.40;;
46078;SDS011;31820;51.880;-0.518;2022-09-17T08:37:11;0.55;;;0.30;;
46078;SDS011;31820;51.880;-0.518;2022-09-17T08:39:37;1.15;;;0.40;;
46078;SDS011;31820;51.880;-0.518;2022-09-17T08:44:42;1.88;;;0.40;;
46078;SDS011;31820;51.880;-0.518;2022-09-17T08:47:32;0.75;;;0.40;;
46078;SDS011;31820;51.880;-0.518;2022-09-17T08:50:06;1.77;;;0.40;;
46078;SDS011;31820;51.880;-0.518;2022-09-17T09:06:36;1.00;;;0.32;;
46078;SDS011;31820;51.880;-0.518;2022-09-17T09:09:15;1.35;;;0.40;;
46078;SDS011;31820;51.880;-0.518;2022-09-17T09:11:43;1.08;;;0.35;;
46078;SDS011;31820;51.880;-0.518;2022-09-17T09:16:54;1.17;;;0.60;;
46078;SDS011;31820;51.880;-0.518;2022-09-17T09:24:33;0.60;;;0.20;;
46078;SDS011;31820;51.880;-0.518;2022-09-17T09:27:14;1.50;;;0.30;;
46078;SDS011;31820;51.880;-0.518;2022-09-17T09:35:17;2.22;;;0.40;;
46078;SDS011;31820;51.880;-0.518;2022-09-17T09:38:09;2.65;;;0.47;;
46078;SDS011;31820;51.880;-0.518;2022-09-17T09:40:54;1.70;;;0.30;;
46078;SDS011;31820;51.880;-0.518;2022-09-17T09:43:44;0.90;;;0.40;;
46078;SDS011;31820;51.880;-0.518;2022-09-17T09:57:03;3.05;;;0.45;;
46078;SDS011;31820;51.880;-0.518;2022-09-17T09:59:32;2.42;;;0.50;;
46078;SDS011;31820;51.880;-0.518;2022-09-17T10:04:26;2.65;;;0.52;;
46078;SDS011;31820;51.880;-0.518;2022-09-17T10:06:54;2.95;;;0.40;;
46078;SDS011;31820;51.880;-0.518;2022-09-17T10:09:32;2.20;;;0.50;;
46078;SDS011;31820;51.880;-0.518;2022-09-17T10:14:43;1.45;;;0.60;;
46078;SDS011;31820;51.880;-0.518;2022-09-17T10:19:47;3.30;;;0.63;;
46078;SDS011;31820;51.880;-0.518;2022-09-17T10:22:35;1.23;;;0.30;;
46078;SDS011;31820;51.880;-0.518;2022-09-17T10:25:02;2.30;;;0.47;;
46078;SDS011;31820;51.880;-0.518;2022-09-17T10:27:30;4.18;;;0.50;;
46078;SDS011;31820;51.880;-0.518;2022-09-17T10:32:34;1.42;;;0.40;;
46078;SDS011;31820;51.880;-0.518;2022-09-17T10:37:32;2.25;;;0.50;;
46078;SDS011;31820;51.880;-0.518;2022-09-17T10:42:46;1.80;;;0.40;;
46078;SDS011;31820;51.880;-0.518;2022-09-17T10:47:52;1.85;;;0.32;;
46078;SDS011;31820;51.880;-0.518;2022-09-17T10:50:26;3.03;;;0.30;;
46078;SDS011;31820;51.880;-0.518;2022-09-17T10:52:53;1.85;;;0.30;;
46078;SDS011;31820;51.880;-0.518;2022-09-17T11:17:27;3.70;;;0.80;;
46078;SDS011;31820;51.880;-0.518;2022-09-17T11:31:14;4.05;;;0.40;;
46078;SDS011;31820;51.880;-0.518;2022-09-17T11:37:18;1.88;;;0.47;;
46078;SDS011;31820;51.880;-0.518;2022-09-17T11:39:48;2.80;;;0.40;;
46078;SDS011;31820;51.880;-0.518;2022-09-17T11:42:29;1.98;;;0.30;;
46078;SDS011;31820;51.880;-0.518;2022-09-17T11:45:03;2.58;;;0.40;;
46078;SDS011;31820;51.880;-0.518;2022-09-17T11:47:38;2.15;;;0.50;;
46078;SDS011;31820;51.880;-0.518;2022-09-17T11:50:13;3.22;;;0.40;;
46078;SDS011;31820;51.880;-0.518;2022-09-17T11:52:55;2.53;;;0.45;;
46078;SDS011;31820;51.880;-0.518;2022-09-17T11:55:25;2.88;;;0.45;;
46078;SDS011;31820;51.880;-0.518;2022-09-17T11:57:58;1.73;;;0.38;;
46078;SDS011;31820;51.880;-0.518;2022-09-17T12:00:27;2.03;;;0.40;;
46078;SDS011;31820;51.880;-0.518;2022-09-17T12:03:03;1.17;;;0.30;;
46078;SDS011;31820;51.880;-0.518;2022-09-17T12:05:39;4.60;;;0.40;;
46078;SDS011;31820;51.880;-0.518;2022-09-17T12:13:33;1.77;;;0.30;;
46078;SDS011;31820;51.880;-0.518;2022-09-17T12:16:26;3.10;;;0.45;;
46078;SDS011;31820;51.880;-0.518;2022-09-17T12:21:30;4.00;;;0.40;;
46078;SDS011;31820;51.880;-0.518;2022-09-17T12:37:46;4.35;;;0.75;;
46078;SDS011;31820;51.880;-0.518;2022-09-17T12:40:38;2.35;;;0.60;;
46078;SDS011;31820;51.880;-0.518;2022-09-17T12:48:52;6.18;;;1.83;;
46078;SDS011;31820;51.880;-0.518;2022-09-17T12:56:57;9.98;;;3.17;;
46078;SDS011;31820;51.880;-0.518;2022-09-17T12:59:50;13.30;;;4.32;;
46078;SDS011;31820;51.880;-0.518;2022-09-17T13:18:59;20.17;;;5.85;;
46078;SDS011;31820;51.880;-0.518;2022-09-17T13:24:19;18.77;;;6.28;;
46078;SDS011;31820;51.880;-0.518;2022-09-17T13:26:49;25.60;;;6.25;;
46078;SDS011;31820;51.880;-0.518;2022-09-17T13:37:43;21.90;;;8.63;;
46078;SDS011;31820;51.880;-0.518;2022-09-17T13:40:25;25.35;;;9.25;;
46078;SDS011;31820;51.880;-0.518;2022-09-17T13:42:55;23.90;;;9.27;;
46078;SDS011;31820;51.880;-0.518;2022-09-17T13:45:23;21.70;;;7.30;;
46078;SDS011;31820;51.880;-0.518;2022-09-17T13:47:53;20.38;;;7.40;;
46078;SDS011;31820;51.880;-0.518;2022-09-17T13:52:59;23.35;;;8.48;;
46078;SDS011;31820;51.880;-0.518;2022-09-17T13:55:34;20.98;;;8.95;;
46078;SDS011;31820;51.880;-0.518;2022-09-17T13:58:03;19.45;;;6.95;;
46078;SDS011;31820;51.880;-0.518;2022-09-17T14:00:48;18.85;;;7.38;;
46078;SDS011;31820;51.880;-0.518;2022-09-17T14:13:47;19.25;;;7.18;;
46078;SDS011;31820;51.880;-0.518;2022-09-17T14:32:18;17.73;;;6.53;;
46078;SDS011;31820;51.880;-0.518;2022-09-17T14:34:57;15.80;;;5.93;;
46078;SDS011;31820;51.880;-0.518;2022-09-17T14:37:25;18.67;;;6.43;;
46078;SDS011;31820;51.880;-0.518;2022-09-17T14:42:19;14.73;;;5.22;;
46078;SDS011;31820;51.880;-0.518;2022-09-17T14:44:50;12.18;;;5.07;;
46078;SDS011;31820;51.880;-0.518;2022-09-17T14:47:22;14.55;;;5.00;;
46078;SDS011;31820;51.880;-0.518;2022-09-17T14:49:48;9.18;;;4.30;;
46078;SDS011;31820;51.880;-0.518;2022-09-17T14:52:30;10.35;;;4.30;;
46078;SDS011;31820;51.880;-0.518;2022-09-17T14:55:16;13.25;;;5.03;;
46078;SDS011;31820;51.880;-0.518;2022-09-17T14:57:44;12.75;;;5.43;;
46078;SDS011;31820;51.880;-0.518;2022-09-17T15:00:16;11.00;;;4.40;;
46078;SDS011;31820;51.880;-0.518;2022-09-17T15:02:48;12.50;;;4.60;;
46078;SDS011;31820;51.880;-0.518;2022-09-17T15:07:51;11.15;;;4.57;;
46078;SDS011;31820;51.880;-0.518;2022-09-17T15:10:29;12.25;;;4.20;;
46078;SDS011;31820;51.880;-0.518;2022-09-17T15:12:55;9.45;;;4.20;;
46078;SDS011;31820;51.880;-0.518;2022-09-17T15:17:49;9.15;;;3.60;;
46078;SDS011;31820;51.880;-0.518;2022-09-17T15:20:20;7.97;;;3.40;;
46078;SDS011;31820;51.880;-0.518;2022-09-17T15:22:55;7.97;;;3.25;;
46078;SDS011;31820;51.880;-0.518;2022-09-17T15:25:25;10.77;;;3.58;;
46078;SDS011;31820;51.880;-0.518;2022-09-17T15:27:54;13.52;;;4.13;;
46078;SDS011;31820;51.880;-0.518;2022-09-17T15:30:23;10.77;;;4.07;;
46078;SDS011;31820;51.880;-0.518;2022-09-17T15:35:20;6.25;;;2.83;;
46078;SDS011;31820;51.880;-0.518;2022-09-17T15:37:47;5.45;;;2.10;;
46078;SDS011;31820;51.880;-0.518;2022-09-17T15:40:22;8.52;;;2.60;;
46078;SDS011;31820;51.880;-0.518;2022-09-17T15:42:50;8.50;;;2.78;;
46078;SDS011;31820;51.880;-0.518;2022-09-17T15:45:20;6.40;;;2.40;;
46078;SDS011;31820;51.880;-0.518;2022-09-17T15:47:52;6.57;;;2.70;;
46078;SDS011;31820;51.880;-0.518;2022-09-17T15:50:22;7.53;;;3.20;;
46078;SDS011;31820;51.880;-0.518;2022-09-17T15:52:50;8.52;;;3.17;;
46078;SDS011;31820;51.880;-0.518;2022-09-17T15:55:27;11.00;;;3.67;;
46078;SDS011;31820;51.880;-0.518;2022-09-17T15:57:54;7.47;;;3.10;;
46078;SDS011;31820;51.880;-0.518;2022-09-17T16:00:21;7.05;;;2.08;;
46078;SDS011;31820;51.880;-0.518;2022-09-17T16:02:46;7.00;;;2.75;;
46078;SDS011;31820;51.880;-0.518;2022-09-17T16:07:38;7.90;;;2.58;;
46078;SDS011;31820;51.880;-0.518;2022-09-17T16:10:04;6.07;;;2.05;;
46078;SDS011;31820;51.880;-0.518;2022-09-17T16:12:30;7.93;;;2.60;;
46078;SDS011;31820;51.880;-0.518;2022-09-17T16:14:57;7.82;;;2.00;;
46078;SDS011;31820;51.880;-0.518;2022-09-17T16:17:29;15.15;;;3.20;;
46078;SDS011;31820;51.880;-0.518;2022-09-17T16:19:58;9.30;;;2.90;;
46078;SDS011;31820;51.880;-0.518;2022-09-17T16:22:24;11.10;;;2.13;;
46078;SDS011;31820;51.880;-0.518;2022-09-17T16:24:51;12.10;;;2.38;;
46078;SDS011;31820;51.880;-0.518;2022-09-17T16:27:18;12.53;;;2.30;;
46078;SDS011;31820;51.880;-0.518;2022-09-17T16:29:46;12.13;;;2.53;;
46078;SDS011;31820;51.880;-0.518;2022-09-17T16:34:39;9.77;;;2.25;;
46078;SDS011;31820;51.880;-0.518;2022-09-17T16:37:04;8.13;;;1.85;;
46078;SDS011;31820;51.880;-0.518;2022-09-17T16:39:30;11.90;;;2.38;;
46078;SDS011;31820;51.880;-0.518;2022-09-17T16:41:55;11.80;;;2.50;;
46078;SDS011;31820;51.880;-0.518;2022-09-17T16:44:21;12.85;;;2.78;;
46078;SDS011;31820;51.880;-0.518;2022-09-17T16:46:46;16.17;;;2.65;;
46078;SDS011;31820;51.880;-0.518;2022-09-17T16:49:15;19.00;;;2.83;;
46078;SDS011;31820;51.880;-0.518;2022-09-17T16:51:40;22.70;;;4.13;;
46078;SDS011;31820;51.880;-0.518;2022-09-17T16:54:06;14.98;;;2.47;;
46078;SDS011;31820;51.880;-0.518;2022-09-17T16:56:31;10.75;;;1.88;;
46078;SDS011;31820;51.880;-0.518;2022-09-17T16:58:57;9.57;;;2.00;;
46078;SDS011;31820;51.880;-0.518;2022-09-17T17:01:22;14.07;;;2.60;;
46078;SDS011;31820;51.880;-0.518;2022-09-17T17:03:51;9.65;;;1.80;;
46078;SDS011;31820;51.880;-0.518;2022-09-17T17:06:18;7.47;;;1.83;;
46078;SDS011;31820;51.880;-0.518;2022-09-17T17:11:10;6.88;;;1.65;;
46078;SDS011;31820;51.880;-0.518;2022-09-17T17:13:36;8.13;;;1.95;;
46078;SDS011;31820;51.880;-0.518;2022-09-17T17:16:05;9.30;;;1.75;;
46078;SDS011;31820;51.880;-0.518;2022-09-17T17:18:32;7.35;;;1.80;;
46078;SDS011;31820;51.880;-0.518;2022-09-17T17:21:03;4.75;;;1.48;;
46078;SDS011;31820;51.880;-0.518;2022-09-17T17:23:32;7.10;;;2.00;;
46078;SDS011;31820;51.880;-0.518;2022-09-17T17:25:58;8.90;;;1.77;;
46078;SDS011;31820;51.880;-0.518;2022-09-17T17:28:24;7.35;;;1.27;;
46078;SDS011;31820;51.880;-0.518;2022-09-17T17:30:49;4.50;;;1.00;;
46078;SDS011;31820;51.880;-0.518;2022-09-17T17:33:15;5.15;;;1.30;;
46078;SDS011;31820;51.880;-0.518;2022-09-17T17:35:40;5.50;;;1.13;;
46078;SDS011;31820;51.880;-0.518;2022-09-17T17:38:06;4.65;;;1.08;;
46078;SDS011;31820;51.880;-0.518;2022-09-17T17:40:31;5.63;;;1.25;;
46078;SDS011;31820;51.880;-0.518;2022-09-17T17:42:57;6.85;;;1.83;;
46078;SDS011;31820;51.880;-0.518;2022-09-17T17:45:22;5.53;;;1.10;;
46078;SDS011;31820;51.880;-0.518;2022-09-17T17:47:48;4.68;;;1.35;;
46078;SDS011;31820;51.880;-0.518;2022-09-17T17:50:13;4.15;;;1.23;;
46078;SDS011;31820;51.880;-0.518;2022-09-17T17:52:40;4.18;;;1.17;;
46078;SDS011;31820;51.880;-0.518;2022-09-17T17:55:08;5.20;;;1.50;;
46078;SDS011;31820;51.880;-0.518;2022-09-17T17:57:34;5.35;;;1.52;;
46078;SDS011;31820;51.880;-0.518;2022-09-17T18:00:00;6.13;;;1.70;;
46078;SDS011;31820;51.880;-0.518;2022-09-17T18:02:26;6.43;;;1.67;;
46078;SDS011;31820;51.880;-0.518;2022-09-17T18:04:51;4.13;;;1.50;;
46078;SDS011;31820;51.880;-0.518;2022-09-17T18:07:17;8.32;;;2.00;;
46078;SDS011;31820;51.880;-0.518;2022-09-17T18:09:42;3.97;;;1.63;;
46078;SDS011;31820;51.880;-0.518;2022-09-17T18:12:08;14.68;;;5.13;;
46078;SDS011;31820;51.880;-0.518;2022-09-17T18:14:34;24.55;;;9.18;;
46078;SDS011;31820;51.880;-0.518;2022-09-17T18:16:59;32.67;;;12.82;;
46078;SDS011;31820;51.880;-0.518;2022-09-17T18:19:25;35.55;;;13.38;;
46078;SDS011;31820;51.880;-0.518;2022-09-17T18:21:52;42.55;;;14.70;;
46078;SDS011;31820;51.880;-0.518;2022-09-17T18:24:18;40.30;;;14.05;;
46078;SDS011;31820;51.880;-0.518;2022-09-17T18:26:43;34.75;;;13.15;;
46078;SDS011;31820;51.880;-0.518;2022-09-17T18:29:09;42.42;;;14.07;;
46078;SDS011;31820;51.880;-0.518;2022-09-17T18:31:35;34.67;;;13.15;;
46078;SDS011;31820;51.880;-0.518;2022-09-17T18:34:03;33.78;;;12.07;;
46078;SDS011;31820;51.880;-0.518;2022-09-17T18:36:31;30.88;;;12.38;;
46078;SDS011;31820;51.880;-0.518;2022-09-17T18:38:59;39.47;;;12.18;;
46078;SDS011;31820;51.880;-0.518;2022-09-17T18:41:27;34.15;;;11.68;;
46078;SDS011;31820;51.880;-0.518;2022-09-17T18:43:53;29.63;;;11.20;;
46078;SDS011;31820;51.880;-0.518;2022-09-17T18:46:19;29.77;;;9.02;;
46078;SDS011;31820;51.880;-0.518;2022-09-17T18:48:45;20.70;;;8.90;;
46078;SDS011;31820;51.880;-0.518;2022-09-17T18:51:11;26.73;;;8.88;;
46078;SDS011;31820;51.880;-0.518;2022-09-17T18:53:41;24.35;;;8.32;;